Vansant, VA (24656)

2:07 AM EDT on August 31, 2016 (GMT -0400)
KM4HDM - Richlands, Virginia | | Change Station

Elev 1972 ft 37.09 °N, 81.83 °W | Updated 14 minutes ago

Scattered Clouds
Scattered Clouds
66.0 °F
Feels Like 66.0 °F
N
0.0
Wind Variable Wind from NNE

Today
High -- | Low -- °F
--% Chance of Precip.
Yesterday
High -- | Low -- °F
Precip. -- in
Pressure 30.15 in
Visibility 10.0 miles
Clouds Scattered Clouds 9500 ft
Dew Point 64 °F
Humidity 94%
Rainfall 0.00 in
Snow Depth Not available.
6:58 AM 7:57 PM
Waning Crescent, 1% visible
METAR KJFZ 310555Z AUTO 00000KT 10SM SCT095 21/20 A3015 RMK AO2 T02050202 10239 20198 402980180
Pressure 30.15 in
Visibility 10.0 miles
Clouds Scattered Clouds 9500 ft
Dew Point 64 °F
Humidity 94%
Rainfall 0.00 in
Snow Depth Not available.
6:58 AM 7:57 PM
Waning Crescent, 1% visible
METAR KJFZ 310555Z AUTO 00000KT 10SM SCT095 21/20 A3015 RMK AO2 T02050202 10239 20198 402980180

10-Day Weather Forecast

Almanac

Astronomy

Aug. 31, 2016 Rise Set
Actual Time
Civil Twilight
Nautical Twilight
Astronomical Twilight
Moon
Length of Visible Light
Length of Day
Tomorrow will be .
, % of the Moon is Illuminated

Today's Extremes

State Highs State Lows

Community

WunderPhotos

Upload Photos

1,936,040 photos uploaded!

WunderBlog® & News

Nearby

Air Quality

  Air Quality AQ Index Pollutant
Not available.

Snow Depth

Station Depth Elevation

Earthquake Activity

City Distance Mag. Time & Date
Minimum magnitude displayed is 2.5.

Coastal Water Temperatures

Place Temperature

Stations

Nearby Weather Stations

Station Location Temp. Windchill Dew Point Humidity Wind Precip. Elev Updated Type
                   

Watches & Warnings

There are currently no watches in effect.